sensor_id;sensor_type;location;lat;lon;timestamp;temperature;humidity
42965;DHT22;28604;51.204;22.552;2023-08-30T00:00:14;20.90;92.90
42965;DHT22;28604;51.204;22.552;2023-08-30T00:03:00;20.80;93.20
42965;DHT22;28604;51.204;22.552;2023-08-30T00:05:26;20.90;93.00
42965;DHT22;28604;51.204;22.552;2023-08-30T00:07:54;20.90;93.10
42965;DHT22;28604;51.204;22.552;2023-08-30T00:10:20;20.90;92.80
42965;DHT22;28604;51.204;22.552;2023-08-30T00:12:46;20.90;92.30
42965;DHT22;28604;51.204;22.552;2023-08-30T00:15:12;21.00;92.10
42965;DHT22;28604;51.204;22.552;2023-08-30T00:17:37;21.00;92.00
42965;DHT22;28604;51.204;22.552;2023-08-30T00:20:04;21.00;92.20
42965;DHT22;28604;51.204;22.552;2023-08-30T00:22:29;20.90;92.20
42965;DHT22;28604;51.204;22.552;2023-08-30T00:24:56;20.80;92.60
42965;DHT22;28604;51.204;22.552;2023-08-30T00:27:22;20.70;92.70
42965;DHT22;28604;51.204;22.552;2023-08-30T00:29:49;20.60;92.80
42965;DHT22;28604;51.204;22.552;2023-08-30T00:32:15;20.50;93.10
42965;DHT22;28604;51.204;22.552;2023-08-30T00:34:41;20.50;93.10
42965;DHT22;28604;51.204;22.552;2023-08-30T00:37:07;20.50;93.30
42965;DHT22;28604;51.204;22.552;2023-08-30T00:39:37;20.50;93.30
42965;DHT22;28604;51.204;22.552;2023-08-30T00:42:04;20.60;93.40
42965;DHT22;28604;51.204;22.552;2023-08-30T00:44:31;20.70;93.40
42965;DHT22;28604;51.204;22.552;2023-08-30T00:46:58;20.80;93.20
42965;DHT22;28604;51.204;22.552;2023-08-30T00:49:24;20.80;93.20
42965;DHT22;28604;51.204;22.552;2023-08-30T00:51:51;21.00;93.20
42965;DHT22;28604;51.204;22.552;2023-08-30T00:54:18;21.00;93.40
42965;DHT22;28604;51.204;22.552;2023-08-30T00:56:44;21.00;93.50
42965;DHT22;28604;51.204;22.552;2023-08-30T00:59:10;21.10;93.50
42965;DHT22;28604;51.204;22.552;2023-08-30T01:01:38;21.10;93.50
42965;DHT22;28604;51.204;22.552;2023-08-30T01:04:07;21.20;93.40
42965;DHT22;28604;51.204;22.552;2023-08-30T01:06:33;21.20;93.20
42965;DHT22;28604;51.204;22.552;2023-08-30T01:09:02;21.20;93.20
42965;DHT22;28604;51.204;22.552;2023-08-30T01:11:53;21.20;93.40
42965;DHT22;28604;51.204;22.552;2023-08-30T01:14:22;21.30;93.40
42965;DHT22;28604;51.204;22.552;2023-08-30T01:16:51;21.30;93.60
42965;DHT22;28604;51.204;22.552;2023-08-30T01:19:26;21.20;92.30
42965;DHT22;28604;51.204;22.552;2023-08-30T01:22:08;21.10;92.80
42965;DHT22;28604;51.204;22.552;2023-08-30T01:24:45;21.10;93.00
42965;DHT22;28604;51.204;22.552;2023-08-30T01:27:15;21.10;93.30
42965;DHT22;28604;51.204;22.552;2023-08-30T01:29:44;21.10;93.20
42965;DHT22;28604;51.204;22.552;2023-08-30T01:32:11;21.10;93.10
42965;DHT22;28604;51.204;22.552;2023-08-30T01:34:40;21.10;93.10
42965;DHT22;28604;51.204;22.552;2023-08-30T01:37:07;21.20;93.20
42965;DHT22;28604;51.204;22.552;2023-08-30T01:39:36;21.20;93.30
42965;DHT22;28604;51.204;22.552;2023-08-30T01:42:03;21.30;93.00
42965;DHT22;28604;51.204;22.552;2023-08-30T01:44:30;21.20;92.90
42965;DHT22;28604;51.204;22.552;2023-08-30T01:46:57;21.30;93.00
42965;DHT22;28604;51.204;22.552;2023-08-30T01:49:25;21.30;93.00
42965;DHT22;28604;51.204;22.552;2023-08-30T01:51:51;21.20;93.20
42965;DHT22;28604;51.204;22.552;2023-08-30T01:54:18;21.30;93.80
42965;DHT22;28604;51.204;22.552;2023-08-30T01:56:46;21.30;93.60
42965;DHT22;28604;51.204;22.552;2023-08-30T01:59:12;21.30;93.70
42965;DHT22;28604;51.204;22.552;2023-08-30T02:01:38;21.20;93.50
42965;DHT22;28604;51.204;22.552;2023-08-30T02:04:04;21.10;93.30
42965;DHT22;28604;51.204;22.552;2023-08-30T02:06:45;21.10;93.30
42965;DHT22;28604;51.204;22.552;2023-08-30T02:09:21;20.90;93.40
42965;DHT22;28604;51.204;22.552;2023-08-30T02:11:50;20.90;93.70
42965;DHT22;28604;51.204;22.552;2023-08-30T02:14:18;20.80;93.50
42965;DHT22;28604;51.204;22.552;2023-08-30T02:16:46;20.80;93.90
42965;DHT22;28604;51.204;22.552;2023-08-30T02:19:13;20.80;93.80
42965;DHT22;28604;51.204;22.552;2023-08-30T02:21:42;20.80;93.80
42965;DHT22;28604;51.204;22.552;2023-08-30T02:24:10;20.70;93.90
42965;DHT22;28604;51.204;22.552;2023-08-30T02:26:36;20.60;93.80
42965;DHT22;28604;51.204;22.552;2023-08-30T02:29:02;20.70;94.00
42965;DHT22;28604;51.204;22.552;2023-08-30T02:31:28;20.80;94.30
42965;DHT22;28604;51.204;22.552;2023-08-30T02:33:54;20.80;93.90
42965;DHT22;28604;51.204;22.552;2023-08-30T02:36:20;20.80;94.00
42965;DHT22;28604;51.204;22.552;2023-08-30T02:38:46;20.70;93.70
42965;DHT22;28604;51.204;22.552;2023-08-30T02:41:14;20.70;93.70
42965;DHT22;28604;51.204;22.552;2023-08-30T02:43:40;20.70;93.40
42965;DHT22;28604;51.204;22.552;2023-08-30T02:46:06;20.60;93.00
42965;DHT22;28604;51.204;22.552;2023-08-30T02:48:32;20.60;93.10
42965;DHT22;28604;51.204;22.552;2023-08-30T02:50:59;20.60;93.10
42965;DHT22;28604;51.204;22.552;2023-08-30T02:53:25;20.60;92.90
42965;DHT22;28604;51.204;22.552;2023-08-30T02:55:51;20.70;93.30
42965;DHT22;28604;51.204;22.552;2023-08-30T02:58:17;20.60;93.60
42965;DHT22;28604;51.204;22.552;2023-08-30T03:00:43;20.60;93.40
42965;DHT22;28604;51.204;22.552;2023-08-30T03:03:09;20.70;93.40
42965;DHT22;28604;51.204;22.552;2023-08-30T03:05:36;20.60;93.30
42965;DHT22;28604;51.204;22.552;2023-08-30T03:08:03;20.60;93.20
42965;DHT22;28604;51.204;22.552;2023-08-30T03:10:29;20.60;93.20
42965;DHT22;28604;51.204;22.552;2023-08-30T03:12:55;20.50;93.10
42965;DHT22;28604;51.204;22.552;2023-08-30T03:15:21;20.50;92.60
42965;DHT22;28604;51.204;22.552;2023-08-30T03:17:48;20.50;92.90
42965;DHT22;28604;51.204;22.552;2023-08-30T03:20:13;20.60;93.20
42965;DHT22;28604;51.204;22.552;2023-08-30T03:22:40;20.50;93.30
42965;DHT22;28604;51.204;22.552;2023-08-30T03:25:06;20.60;93.40
42965;DHT22;28604;51.204;22.552;2023-08-30T03:27:32;20.60;93.40
42965;DHT22;28604;51.204;22.552;2023-08-30T03:29:58;20.50;93.40
42965;DHT22;28604;51.204;22.552;2023-08-30T03:32:24;20.50;93.50
42965;DHT22;28604;51.204;22.552;2023-08-30T03:34:50;20.40;93.20
42965;DHT22;28604;51.204;22.552;2023-08-30T03:37:17;20.40;93.20
42965;DHT22;28604;51.204;22.552;2023-08-30T03:39:43;20.50;93.20
42965;DHT22;28604;51.204;22.552;2023-08-30T03:42:09;20.50;93.30
42965;DHT22;28604;51.204;22.552;2023-08-30T03:44:37;20.60;93.50
42965;DHT22;28604;51.204;22.552;2023-08-30T03:47:03;20.60;93.40
42965;DHT22;28604;51.204;22.552;2023-08-30T03:49:29;20.60;93.60
42965;DHT22;28604;51.204;22.552;2023-08-30T03:51:55;20.60;93.50
42965;DHT22;28604;51.204;22.552;2023-08-30T03:54:22;20.70;93.60
42965;DHT22;28604;51.204;22.552;2023-08-30T03:56:48;20.60;93.50
42965;DHT22;28604;51.204;22.552;2023-08-30T03:59:14;20.70;93.40
42965;DHT22;28604;51.204;22.552;2023-08-30T04:01:40;20.70;93.40
42965;DHT22;28604;51.204;22.552;2023-08-30T04:04:06;20.60;93.30
42965;DHT22;28604;51.204;22.552;2023-08-30T04:06:32;20.60;93.30
42965;DHT22;28604;51.204;22.552;2023-08-30T04:08:58;20.60;93.30
42965;DHT22;28604;51.204;22.552;2023-08-30T04:11:24;20.60;93.30
42965;DHT22;28604;51.204;22.552;2023-08-30T04:13:50;20.50;93.20
42965;DHT22;28604;51.204;22.552;2023-08-30T04:16:19;20.60;93.40
42965;DHT22;28604;51.204;22.552;2023-08-30T04:18:45;20.60;93.20
42965;DHT22;28604;51.204;22.552;2023-08-30T04:21:11;20.70;93.30
42965;DHT22;28604;51.204;22.552;2023-08-30T04:23:36;20.70;93.10
42965;DHT22;28604;51.204;22.552;2023-08-30T04:26:03;20.70;93.10
42965;DHT22;28604;51.204;22.552;2023-08-30T04:28:28;20.80;93.20
42965;DHT22;28604;51.204;22.552;2023-08-30T04:30:55;20.80;93.40
42965;DHT22;28604;51.204;22.552;2023-08-30T04:33:21;20.90;93.40
42965;DHT22;28604;51.204;22.552;2023-08-30T04:35:52;20.90;93.40
42965;DHT22;28604;51.204;22.552;2023-08-30T04:38:18;20.80;93.40
42965;DHT22;28604;51.204;22.552;2023-08-30T04:40:46;20.90;93.80
42965;DHT22;28604;51.204;22.552;2023-08-30T04:43:14;21.00;93.30
42965;DHT22;28604;51.204;22.552;2023-08-30T04:45:40;21.00;93.20
42965;DHT22;28604;51.204;22.552;2023-08-30T04:48:07;21.10;93.20
42965;DHT22;28604;51.204;22.552;2023-08-30T04:50:34;21.10;93.20
42965;DHT22;28604;51.204;22.552;2023-08-30T04:53:00;21.10;93.10
42965;DHT22;28604;51.204;22.552;2023-08-30T04:55:30;21.10;93.10
42965;DHT22;28604;51.204;22.552;2023-08-30T04:57:58;21.10;93.00
42965;DHT22;28604;51.204;22.552;2023-08-30T05:00:27;21.20;92.90
42965;DHT22;28604;51.204;22.552;2023-08-30T05:02:53;21.20;93.00
42965;DHT22;28604;51.204;22.552;2023-08-30T05:05:19;21.30;92.90
42965;DHT22;28604;51.204;22.552;2023-08-30T05:07:45;21.30;93.20
42965;DHT22;28604;51.204;22.552;2023-08-30T05:10:13;21.30;92.80
42965;DHT22;28604;51.204;22.552;2023-08-30T05:12:38;21.40;93.00
42965;DHT22;28604;51.204;22.552;2023-08-30T05:15:05;21.40;93.10
42965;DHT22;28604;51.204;22.552;2023-08-30T05:17:31;21.50;93.20
42965;DHT22;28604;51.204;22.552;2023-08-30T05:19:59;21.50;93.00
42965;DHT22;28604;51.204;22.552;2023-08-30T05:22:25;21.60;93.30
42965;DHT22;28604;51.204;22.552;2023-08-30T05:24:51;21.60;93.10
42965;DHT22;28604;51.204;22.552;2023-08-30T05:27:17;21.70;92.90
42965;DHT22;28604;51.204;22.552;2023-08-30T05:29:44;21.80;93.00
42965;DHT22;28604;51.204;22.552;2023-08-30T05:32:10;21.80;92.80
42965;DHT22;28604;51.204;22.552;2023-08-30T05:34:54;21.90;93.10
42965;DHT22;28604;51.204;22.552;2023-08-30T05:37:40;21.90;92.40
42965;DHT22;28604;51.204;22.552;2023-08-30T05:40:24;22.00;92.50
42965;DHT22;28604;51.204;22.552;2023-08-30T05:42:50;22.00;92.00
42965;DHT22;28604;51.204;22.552;2023-08-30T05:45:16;22.20;92.50
42965;DHT22;28604;51.204;22.552;2023-08-30T05:47:43;22.20;92.20
42965;DHT22;28604;51.204;22.552;2023-08-30T05:50:09;22.30;92.00
42965;DHT22;28604;51.204;22.552;2023-08-30T05:52:35;22.30;92.30
42965;DHT22;28604;51.204;22.552;2023-08-30T05:55:01;22.40;92.20
42965;DHT22;28604;51.204;22.552;2023-08-30T05:57:27;22.60;91.50
42965;DHT22;28604;51.204;22.552;2023-08-30T05:59:59;22.70;92.20
42965;DHT22;28604;51.204;22.552;2023-08-30T06:02:25;22.90;91.90
42965;DHT22;28604;51.204;22.552;2023-08-30T06:04:51;23.00;91.40
42965;DHT22;28604;51.204;22.552;2023-08-30T06:07:17;23.10;91.30
42965;DHT22;28604;51.204;22.552;2023-08-30T06:09:44;23.40;91.70
42965;DHT22;28604;51.204;22.552;2023-08-30T06:12:10;23.70;91.20
42965;DHT22;28604;51.204;22.552;2023-08-30T06:14:36;24.00;90.50
42965;DHT22;28604;51.204;22.552;2023-08-30T06:17:02;24.30;90.40
42965;DHT22;28604;51.204;22.552;2023-08-30T06:19:28;24.60;88.60
42965;DHT22;28604;51.204;22.552;2023-08-30T06:21:54;24.70;88.70
42965;DHT22;28604;51.204;22.552;2023-08-30T06:24:20;24.90;87.90
42965;DHT22;28604;51.204;22.552;2023-08-30T06:26:47;24.90;86.40
42965;DHT22;28604;51.204;22.552;2023-08-30T06:29:13;24.90;87.10
42965;DHT22;28604;51.204;22.552;2023-08-30T06:31:39;24.80;86.50
42965;DHT22;28604;51.204;22.552;2023-08-30T06:34:07;24.60;85.40
42965;DHT22;28604;51.204;22.552;2023-08-30T06:36:33;24.60;87.10
42965;DHT22;28604;51.204;22.552;2023-08-30T06:38:59;24.40;86.80
42965;DHT22;28604;51.204;22.552;2023-08-30T06:41:25;24.30;87.60
42965;DHT22;28604;51.204;22.552;2023-08-30T06:43:51;24.30;87.50
42965;DHT22;28604;51.204;22.552;2023-08-30T06:46:17;24.30;87.50
42965;DHT22;28604;51.204;22.552;2023-08-30T06:48:43;24.20;86.50
42965;DHT22;28604;51.204;22.552;2023-08-30T06:51:09;24.00;87.10
42965;DHT22;28604;51.204;22.552;2023-08-30T06:53:36;24.00;89.10
42965;DHT22;28604;51.204;22.552;2023-08-30T06:56:02;23.80;88.40
42965;DHT22;28604;51.204;22.552;2023-08-30T06:58:28;23.80;89.00
42965;DHT22;28604;51.204;22.552;2023-08-30T07:00:57;23.70;88.50
42965;DHT22;28604;51.204;22.552;2023-08-30T07:03:25;23.70;88.90
42965;DHT22;28604;51.204;22.552;2023-08-30T07:05:52;23.60;89.20
42965;DHT22;28604;51.204;22.552;2023-08-30T07:08:21;23.60;88.80
42965;DHT22;28604;51.204;22.552;2023-08-30T07:10:48;23.60;88.70
42965;DHT22;28604;51.204;22.552;2023-08-30T07:13:17;23.60;90.00
42965;DHT22;28604;51.204;22.552;2023-08-30T07:15:43;23.50;89.50
42965;DHT22;28604;51.204;22.552;2023-08-30T07:18:09;23.50;89.80
42965;DHT22;28604;51.204;22.552;2023-08-30T07:20:36;23.50;90.00
42965;DHT22;28604;51.204;22.552;2023-08-30T07:23:04;23.60;89.40
42965;DHT22;28604;51.204;22.552;2023-08-30T07:25:30;23.50;89.20
42965;DHT22;28604;51.204;22.552;2023-08-30T07:27:59;23.50;88.90
42965;DHT22;28604;51.204;22.552;2023-08-30T07:30:25;23.50;89.20
42965;DHT22;28604;51.204;22.552;2023-08-30T07:32:51;23.50;88.70
42965;DHT22;28604;51.204;22.552;2023-08-30T07:35:17;23.50;89.20
42965;DHT22;28604;51.204;22.552;2023-08-30T07:37:43;23.50;89.40
42965;DHT22;28604;51.204;22.552;2023-08-30T07:40:09;23.50;89.70
42965;DHT22;28604;51.204;22.552;2023-08-30T07:42:35;23.40;88.70
42965;DHT22;28604;51.204;22.552;2023-08-30T07:45:01;23.30;88.40
42965;DHT22;28604;51.204;22.552;2023-08-30T07:47:27;23.40;89.30
42965;DHT22;28604;51.204;22.552;2023-08-30T07:49:53;23.30;89.70
42965;DHT22;28604;51.204;22.552;2023-08-30T07:52:19;23.30;88.70
42965;DHT22;28604;51.204;22.552;2023-08-30T07:54:45;23.30;89.10
42965;DHT22;28604;51.204;22.552;2023-08-30T07:57:11;23.30;88.90
42965;DHT22;28604;51.204;22.552;2023-08-30T07:59:37;23.30;89.20
42965;DHT22;28604;51.204;22.552;2023-08-30T08:02:04;23.30;89.20
42965;DHT22;28604;51.204;22.552;2023-08-30T08:04:32;23.40;89.40
42965;DHT22;28604;51.204;22.552;2023-08-30T08:06:58;23.40;88.90
42965;DHT22;28604;51.204;22.552;2023-08-30T08:09:24;23.40;88.20
42965;DHT22;28604;51.204;22.552;2023-08-30T08:11:50;23.50;89.10
42965;DHT22;28604;51.204;22.552;2023-08-30T08:14:16;23.60;88.10
42965;DHT22;28604;51.204;22.552;2023-08-30T08:16:42;23.60;86.50
42965;DHT22;28604;51.204;22.552;2023-08-30T08:19:08;23.70;86.90
42965;DHT22;28604;51.204;22.552;2023-08-30T08:21:34;23.80;87.10
42965;DHT22;28604;51.204;22.552;2023-08-30T08:24:02;23.90;86.50
42965;DHT22;28604;51.204;22.552;2023-08-30T08:26:28;24.10;86.20
42965;DHT22;28604;51.204;22.552;2023-08-30T08:28:54;24.40;85.90
42965;DHT22;28604;51.204;22.552;2023-08-30T08:31:21;24.70;86.40
42965;DHT22;28604;51.204;22.552;2023-08-30T08:33:51;25.20;85.30
42965;DHT22;28604;51.204;22.552;2023-08-30T08:36:17;25.70;83.90
42965;DHT22;28604;51.204;22.552;2023-08-30T08:38:43;26.40;83.20
42965;DHT22;28604;51.204;22.552;2023-08-30T08:41:12;27.20;81.00
42965;DHT22;28604;51.204;22.552;2023-08-30T08:43:41;27.80;77.60
42965;DHT22;28604;51.204;22.552;2023-08-30T08:46:10;28.20;75.50
42965;DHT22;28604;51.204;22.552;2023-08-30T08:48:41;28.20;74.60
42965;DHT22;28604;51.204;22.552;2023-08-30T08:51:09;28.30;73.70
42965;DHT22;28604;51.204;22.552;2023-08-30T08:53:36;28.30;74.70
42965;DHT22;28604;51.204;22.552;2023-08-30T08:56:04;28.40;74.10
42965;DHT22;28604;51.204;22.552;2023-08-30T08:58:36;28.30;73.70
42965;DHT22;28604;51.204;22.552;2023-08-30T09:01:04;28.10;73.50
42965;DHT22;28604;51.204;22.552;2023-08-30T09:03:32;28.00;73.40
42965;DHT22;28604;51.204;22.552;2023-08-30T09:05:59;27.90;74.20
42965;DHT22;28604;51.204;22.552;2023-08-30T09:08:26;27.90;74.00
42965;DHT22;28604;51.204;22.552;2023-08-30T09:10:52;27.70;73.10
42965;DHT22;28604;51.204;22.552;2023-08-30T09:13:18;27.50;73.90
42965;DHT22;28604;51.204;22.552;2023-08-30T09:15:45;27.40;74.20
42965;DHT22;28604;51.204;22.552;2023-08-30T09:18:18;27.10;73.00
42965;DHT22;28604;51.204;22.552;2023-08-30T09:20:44;27.00;75.60
42965;DHT22;28604;51.204;22.552;2023-08-30T09:23:17;27.00;75.30
42965;DHT22;28604;51.204;22.552;2023-08-30T09:25:44;27.20;75.10
42965;DHT22;28604;51.204;22.552;2023-08-30T09:28:10;27.50;74.90
42965;DHT22;28604;51.204;22.552;2023-08-30T09:30:36;27.70;71.70
42965;DHT22;28604;51.204;22.552;2023-08-30T09:33:03;27.90;73.30
42965;DHT22;28604;51.204;22.552;2023-08-30T09:35:29;28.20;72.70
42965;DHT22;28604;51.204;22.552;2023-08-30T09:37:55;28.20;72.50
42965;DHT22;28604;51.204;22.552;2023-08-30T09:40:21;28.30;72.40
42965;DHT22;28604;51.204;22.552;2023-08-30T09:42:48;28.20;71.80
42965;DHT22;28604;51.204;22.552;2023-08-30T09:45:23;28.30;72.00
42965;DHT22;28604;51.204;22.552;2023-08-30T09:47:49;28.20;72.00
42965;DHT22;28604;51.204;22.552;2023-08-30T09:50:20;28.20;71.80
42965;DHT22;28604;51.204;22.552;2023-08-30T09:52:50;28.30;72.90
42965;DHT22;28604;51.204;22.552;2023-08-30T09:55:18;28.50;71.10
42965;DHT22;28604;51.204;22.552;2023-08-30T09:57:44;28.50;71.80
42965;DHT22;28604;51.204;22.552;2023-08-30T10:00:11;28.50;71.40
42965;DHT22;28604;51.204;22.552;2023-08-30T10:02:41;28.30;71.20
42965;DHT22;28604;51.204;22.552;2023-08-30T10:05:10;28.20;71.10
42965;DHT22;28604;51.204;22.552;2023-08-30T10:07:37;28.10;71.90
42965;DHT22;28604;51.204;22.552;2023-08-30T10:10:04;28.00;71.00
42965;DHT22;28604;51.204;22.552;2023-08-30T10:12:31;27.90;70.80
42965;DHT22;28604;51.204;22.552;2023-08-30T10:14:58;27.80;71.00
42965;DHT22;28604;51.204;22.552;2023-08-30T10:17:27;27.60;70.30
42965;DHT22;28604;51.204;22.552;2023-08-30T10:19:55;27.40;71.20
42965;DHT22;28604;51.204;22.552;2023-08-30T10:22:23;27.30;71.00
42965;DHT22;28604;51.204;22.552;2023-08-30T10:24:56;27.10;71.90
42965;DHT22;28604;51.204;22.552;2023-08-30T10:27:24;27.10;72.10
42965;DHT22;28604;51.204;22.552;2023-08-30T10:29:52;27.00;72.70
42965;DHT22;28604;51.204;22.552;2023-08-30T10:32:22;26.90;71.60
42965;DHT22;28604;51.204;22.552;2023-08-30T10:34:49;26.90;73.40
42965;DHT22;28604;51.204;22.552;2023-08-30T10:37:15;26.80;72.70
42965;DHT22;28604;51.204;22.552;2023-08-30T10:39:43;26.80;73.30
42965;DHT22;28604;51.204;22.552;2023-08-30T10:42:14;26.80;72.40
42965;DHT22;28604;51.204;22.552;2023-08-30T10:44:48;26.70;72.60
42965;DHT22;28604;51.204;22.552;2023-08-30T10:47:18;26.80;73.80
42965;DHT22;28604;51.204;22.552;2023-08-30T10:49:47;26.80;74.30
42965;DHT22;28604;51.204;22.552;2023-08-30T10:52:13;26.80;73.20
42965;DHT22;28604;51.204;22.552;2023-08-30T10:54:39;26.80;72.80
42965;DHT22;28604;51.204;22.552;2023-08-30T10:57:12;26.80;73.10
42965;DHT22;28604;51.204;22.552;2023-08-30T10:59:38;26.90;72.80
42965;DHT22;28604;51.204;22.552;2023-08-30T11:02:04;26.80;72.90
42965;DHT22;28604;51.204;22.552;2023-08-30T11:04:32;26.80;72.70
42965;DHT22;28604;51.204;22.552;2023-08-30T11:06:58;26.80;73.50
42965;DHT22;28604;51.204;22.552;2023-08-30T11:09:24;26.90;73.00
42965;DHT22;28604;51.204;22.552;2023-08-30T11:11:51;27.00;72.60
42965;DHT22;28604;51.204;22.552;2023-08-30T11:14:18;27.10;72.70
42965;DHT22;28604;51.204;22.552;2023-08-30T11:16:44;27.10;73.20
42965;DHT22;28604;51.204;22.552;2023-08-30T11:19:11;27.20;73.30
42965;DHT22;28604;51.204;22.552;2023-08-30T11:21:39;27.40;73.30
42965;DHT22;28604;51.204;22.552;2023-08-30T11:24:06;27.50;72.80
42965;DHT22;28604;51.204;22.552;2023-08-30T11:26:33;27.50;72.60
42965;DHT22;28604;51.204;22.552;2023-08-30T11:29:09;27.50;72.60
42965;DHT22;28604;51.204;22.552;2023-08-30T11:31:35;27.40;72.50
42965;DHT22;28604;51.204;22.552;2023-08-30T11:34:01;27.40;73.40
42965;DHT22;28604;51.204;22.552;2023-08-30T11:36:32;27.40;73.20
42965;DHT22;28604;51.204;22.552;2023-08-30T11:38:59;27.40;72.50
42965;DHT22;28604;51.204;22.552;2023-08-30T11:41:25;27.30;72.70
42965;DHT22;28604;51.204;22.552;2023-08-30T11:43:52;27.30;72.70
42965;DHT22;28604;51.204;22.552;2023-08-30T11:46:19;27.40;72.70
42965;DHT22;28604;51.204;22.552;2023-08-30T11:48:47;27.40;71.80
42965;DHT22;28604;51.204;22.552;2023-08-30T11:51:14;27.40;71.00
42965;DHT22;28604;51.204;22.552;2023-08-30T11:53:40;27.50;71.90
42965;DHT22;28604;51.204;22.552;2023-08-30T11:56:08;27.50;71.80
42965;DHT22;28604;51.204;22.552;2023-08-30T11:58:35;27.40;72.00
42965;DHT22;28604;51.204;22.552;2023-08-30T12:01:01;27.30;72.30
42965;DHT22;28604;51.204;22.552;2023-08-30T12:03:28;27.40;73.50
42965;DHT22;28604;51.204;22.552;2023-08-30T12:05:54;27.40;73.00
42965;DHT22;28604;51.204;22.552;2023-08-30T12:08:25;27.40;71.80
42965;DHT22;28604;51.204;22.552;2023-08-30T12:10:52;27.30;71.90
42965;DHT22;28604;51.204;22.552;2023-08-30T12:13:26;27.30;72.20
42965;DHT22;28604;51.204;22.552;2023-08-30T12:15:52;27.20;72.70
42965;DHT22;28604;51.204;22.552;2023-08-30T12:18:23;27.40;73.20
42965;DHT22;28604;51.204;22.552;2023-08-30T12:20:54;27.60;73.30
42965;DHT22;28604;51.204;22.552;2023-08-30T12:23:25;27.70;72.80
42965;DHT22;28604;51.204;22.552;2023-08-30T12:25:58;27.80;71.20
42965;DHT22;28604;51.204;22.552;2023-08-30T12:28:28;27.90;70.40
42965;DHT22;28604;51.204;22.552;2023-08-30T12:30:55;28.00;70.10
42965;DHT22;28604;51.204;22.552;2023-08-30T12:33:21;28.10;69.80
42965;DHT22;28604;51.204;22.552;2023-08-30T12:35:47;28.00;70.00
42965;DHT22;28604;51.204;22.552;2023-08-30T12:38:14;28.00;69.80
42965;DHT22;28604;51.204;22.552;2023-08-30T12:40:46;28.00;70.00
42965;DHT22;28604;51.204;22.552;2023-08-30T12:43:14;28.20;70.40
42965;DHT22;28604;51.204;22.552;2023-08-30T12:45:40;28.20;69.30
42965;DHT22;28604;51.204;22.552;2023-08-30T12:48:08;28.20;68.20
42965;DHT22;28604;51.204;22.552;2023-08-30T12:50:38;28.30;68.00
42965;DHT22;28604;51.204;22.552;2023-08-30T12:53:07;28.40;68.40
42965;DHT22;28604;51.204;22.552;2023-08-30T12:55:33;28.50;68.90
42965;DHT22;28604;51.204;22.552;2023-08-30T12:58:01;28.50;68.30
42965;DHT22;28604;51.204;22.552;2023-08-30T13:00:27;28.50;68.70
42965;DHT22;28604;51.204;22.552;2023-08-30T13:02:53;28.70;67.20
42965;DHT22;28604;51.204;22.552;2023-08-30T13:05:19;28.80;67.60
42965;DHT22;28604;51.204;22.552;2023-08-30T13:07:45;28.90;66.50
42965;DHT22;28604;51.204;22.552;2023-08-30T13:10:11;28.90;66.10
42965;DHT22;28604;51.204;22.552;2023-08-30T13:12:37;28.90;66.70
42965;DHT22;28604;51.204;22.552;2023-08-30T13:15:04;28.90;66.50
42965;DHT22;28604;51.204;22.552;2023-08-30T13:17:30;28.70;66.00
42965;DHT22;28604;51.204;22.552;2023-08-30T13:19:56;28.70;66.70
42965;DHT22;28604;51.204;22.552;2023-08-30T13:22:24;28.50;67.20
42965;DHT22;28604;51.204;22.552;2023-08-30T13:24:50;28.50;67.30
42965;DHT22;28604;51.204;22.552;2023-08-30T13:27:17;28.40;67.90
42965;DHT22;28604;51.204;22.552;2023-08-30T13:29:42;28.30;67.00
42965;DHT22;28604;51.204;22.552;2023-08-30T13:32:08;28.20;67.10
42965;DHT22;28604;51.204;22.552;2023-08-30T13:34:34;28.20;67.00
42965;DHT22;28604;51.204;22.552;2023-08-30T13:37:00;28.10;67.30
42965;DHT22;28604;51.204;22.552;2023-08-30T13:39:26;28.10;67.90
42965;DHT22;28604;51.204;22.552;2023-08-30T13:41:52;28.00;68.10
42965;DHT22;28604;51.204;22.552;2023-08-30T13:44:18;28.00;68.80
42965;DHT22;28604;51.204;22.552;2023-08-30T13:46:44;28.00;68.00
42965;DHT22;28604;51.204;22.552;2023-08-30T13:49:13;28.10;68.60
42965;DHT22;28604;51.204;22.552;2023-08-30T13:51:39;28.00;68.00
42965;DHT22;28604;51.204;22.552;2023-08-30T13:54:05;28.00;68.30
42965;DHT22;28604;51.204;22.552;2023-08-30T13:56:31;28.00;68.00
42965;DHT22;28604;51.204;22.552;2023-08-30T13:58:57;28.10;69.30
42965;DHT22;28604;51.204;22.552;2023-08-30T14:01:23;28.10;68.30
42965;DHT22;28604;51.204;22.552;2023-08-30T14:03:49;28.20;68.30
42965;DHT22;28604;51.204;22.552;2023-08-30T14:06:15;28.30;68.40
42965;DHT22;28604;51.204;22.552;2023-08-30T14:08:43;28.30;68.20
42965;DHT22;28604;51.204;22.552;2023-08-30T14:11:09;28.20;67.00
42965;DHT22;28604;51.204;22.552;2023-08-30T14:13:34;28.20;67.50
42965;DHT22;28604;51.204;22.552;2023-08-30T14:16:02;28.30;68.20
42965;DHT22;28604;51.204;22.552;2023-08-30T14:18:31;28.30;68.00
42965;DHT22;28604;51.204;22.552;2023-08-30T14:20:58;28.20;68.80
42965;DHT22;28604;51.204;22.552;2023-08-30T14:23:28;28.10;68.10
42965;DHT22;28604;51.204;22.552;2023-08-30T14:25:59;28.20;68.10
42965;DHT22;28604;51.204;22.552;2023-08-30T14:28:28;28.10;68.50
42965;DHT22;28604;51.204;22.552;2023-08-30T14:30:54;27.90;68.20
42965;DHT22;28604;51.204;22.552;2023-08-30T14:33:20;27.90;68.60
42965;DHT22;28604;51.204;22.552;2023-08-30T14:35:46;27.90;68.50
42965;DHT22;28604;51.204;22.552;2023-08-30T14:38:12;27.80;68.90
42965;DHT22;28604;51.204;22.552;2023-08-30T14:40:38;27.90;68.70
42965;DHT22;28604;51.204;22.552;2023-08-30T14:43:04;27.90;68.80
42965;DHT22;28604;51.204;22.552;2023-08-30T14:45:31;28.00;68.80
42965;DHT22;28604;51.204;22.552;2023-08-30T14:47:57;28.10;68.10
42965;DHT22;28604;51.204;22.552;2023-08-30T14:50:23;28.10;68.00
42965;DHT22;28604;51.204;22.552;2023-08-30T14:52:49;28.10;68.30
42965;DHT22;28604;51.204;22.552;2023-08-30T14:55:16;28.20;68.50
42965;DHT22;28604;51.204;22.552;2023-08-30T14:57:42;28.20;67.60
42965;DHT22;28604;51.204;22.552;2023-08-30T15:00:08;28.20;67.90
42965;DHT22;28604;51.204;22.552;2023-08-30T15:02:34;28.20;68.00
42965;DHT22;28604;51.204;22.552;2023-08-30T15:05:00;28.10;67.70
42965;DHT22;28604;51.204;22.552;2023-08-30T15:07:26;28.10;67.60
42965;DHT22;28604;51.204;22.552;2023-08-30T15:09:52;28.10;67.50
42965;DHT22;28604;51.204;22.552;2023-08-30T15:12:18;27.90;68.00
42965;DHT22;28604;51.204;22.552;2023-08-30T15:14:44;27.90;68.40